sensor_id;sensor_type;location;lat;lon;timestamp;temperature;humidity
60909;DHT22;46780;48.128;-1.704;2023-01-10T00:00:19;8.30;96.60
60909;DHT22;46780;48.128;-1.704;2023-01-10T00:02:45;8.30;96.70
60909;DHT22;46780;48.128;-1.704;2023-01-10T00:05:13;8.30;96.70
60909;DHT22;46780;48.128;-1.704;2023-01-10T00:07:39;8.30;96.70
60909;DHT22;46780;48.128;-1.704;2023-01-10T00:10:07;8.20;96.70
60909;DHT22;46780;48.128;-1.704;2023-01-10T00:12:33;8.20;96.80
60909;DHT22;46780;48.128;-1.704;2023-01-10T00:15:00;8.20;96.80
60909;DHT22;46780;48.128;-1.704;2023-01-10T00:17:26;8.20;96.90
60909;DHT22;46780;48.128;-1.704;2023-01-10T00:19:53;8.20;97.00
60909;DHT22;46780;48.128;-1.704;2023-01-10T00:22:20;8.20;97.20
60909;DHT22;46780;48.128;-1.704;2023-01-10T00:24:47;8.20;97.20
60909;DHT22;46780;48.128;-1.704;2023-01-10T00:27:13;8.20;97.30
60909;DHT22;46780;48.128;-1.704;2023-01-10T00:29:40;8.20;97.20
60909;DHT22;46780;48.128;-1.704;2023-01-10T00:32:06;8.30;97.20
60909;DHT22;46780;48.128;-1.704;2023-01-10T00:34:33;8.30;97.20
60909;DHT22;46780;48.128;-1.704;2023-01-10T00:36:59;8.30;97.10
60909;DHT22;46780;48.128;-1.704;2023-01-10T00:39:27;8.30;97.00
60909;DHT22;46780;48.128;-1.704;2023-01-10T00:41:53;8.30;97.00
60909;DHT22;46780;48.128;-1.704;2023-01-10T00:44:20;8.30;97.00
60909;DHT22;46780;48.128;-1.704;2023-01-10T00:46:46;8.20;97.20
60909;DHT22;46780;48.128;-1.704;2023-01-10T00:49:13;8.30;97.20
60909;DHT22;46780;48.128;-1.704;2023-01-10T00:51:39;8.20;97.30
60909;DHT22;46780;48.128;-1.704;2023-01-10T00:54:07;8.20;97.30
60909;DHT22;46780;48.128;-1.704;2023-01-10T00:56:35;8.20;97.40
60909;DHT22;46780;48.128;-1.704;2023-01-10T00:59:02;8.20;97.50
60909;DHT22;46780;48.128;-1.704;2023-01-10T01:01:28;8.30;97.50
60909;DHT22;46780;48.128;-1.704;2023-01-10T01:03:55;8.30;97.50
60909;DHT22;46780;48.128;-1.704;2023-01-10T01:06:21;8.30;97.50
60909;DHT22;46780;48.128;-1.704;2023-01-10T01:08:48;8.30;97.50
60909;DHT22;46780;48.128;-1.704;2023-01-10T01:11:14;8.30;97.50
60909;DHT22;46780;48.128;-1.704;2023-01-10T01:13:42;8.30;97.50
60909;DHT22;46780;48.128;-1.704;2023-01-10T01:16:08;8.30;97.60
60909;DHT22;46780;48.128;-1.704;2023-01-10T01:18:35;8.30;97.60
60909;DHT22;46780;48.128;-1.704;2023-01-10T01:21:01;8.30;97.60
60909;DHT22;46780;48.128;-1.704;2023-01-10T01:23:28;8.30;97.70
60909;DHT22;46780;48.128;-1.704;2023-01-10T01:25:55;8.30;97.80
60909;DHT22;46780;48.128;-1.704;2023-01-10T01:28:22;8.30;97.80
60909;DHT22;46780;48.128;-1.704;2023-01-10T01:30:51;8.40;97.80
60909;DHT22;46780;48.128;-1.704;2023-01-10T01:33:18;8.40;97.80
60909;DHT22;46780;48.128;-1.704;2023-01-10T01:35:45;8.40;97.90
60909;DHT22;46780;48.128;-1.704;2023-01-10T01:38:12;8.40;97.90
60909;DHT22;46780;48.128;-1.704;2023-01-10T01:40:39;8.40;97.90
60909;DHT22;46780;48.128;-1.704;2023-01-10T01:43:21;8.40;97.90
60909;DHT22;46780;48.128;-1.704;2023-01-10T01:45:49;8.40;98.00
60909;DHT22;46780;48.128;-1.704;2023-01-10T01:48:22;8.40;98.10
60909;DHT22;46780;48.128;-1.704;2023-01-10T01:50:54;8.40;98.20
60909;DHT22;46780;48.128;-1.704;2023-01-10T01:53:24;8.40;98.30
60909;DHT22;46780;48.128;-1.704;2023-01-10T01:55:55;8.30;98.40
60909;DHT22;46780;48.128;-1.704;2023-01-10T01:58:28;8.30;98.70
60909;DHT22;46780;48.128;-1.704;2023-01-10T02:00:58;8.30;98.90
60909;DHT22;46780;48.128;-1.704;2023-01-10T02:03:25;8.30;99.00
60909;DHT22;46780;48.128;-1.704;2023-01-10T02:05:52;8.40;99.10
60909;DHT22;46780;48.128;-1.704;2023-01-10T02:08:19;8.40;99.20
60909;DHT22;46780;48.128;-1.704;2023-01-10T02:10:52;8.40;99.20
60909;DHT22;46780;48.128;-1.704;2023-01-10T02:13:21;8.40;99.40
60909;DHT22;46780;48.128;-1.704;2023-01-10T02:15:49;8.40;99.40
60909;DHT22;46780;48.128;-1.704;2023-01-10T02:18:17;8.50;99.60
60909;DHT22;46780;48.128;-1.704;2023-01-10T02:20:56;8.50;99.60
60909;DHT22;46780;48.128;-1.704;2023-01-10T02:27:21;8.50;99.90
60909;DHT22;46780;48.128;-1.704;2023-01-10T02:32:56;8.50;99.90
60909;DHT22;46780;48.128;-1.704;2023-01-10T02:35:33;8.50;99.90
60909;DHT22;46780;48.128;-1.704;2023-01-10T02:38:09;8.60;99.90
60909;DHT22;46780;48.128;-1.704;2023-01-10T02:40:48;8.50;99.90
60909;DHT22;46780;48.128;-1.704;2023-01-10T02:43:21;8.50;99.90
60909;DHT22;46780;48.128;-1.704;2023-01-10T02:45:54;8.60;99.90
60909;DHT22;46780;48.128;-1.704;2023-01-10T02:48:22;8.60;99.90
60909;DHT22;46780;48.128;-1.704;2023-01-10T02:50:53;8.60;99.90
60909;DHT22;46780;48.128;-1.704;2023-01-10T02:53:24;8.60;99.90
60909;DHT22;46780;48.128;-1.704;2023-01-10T02:56:18;8.60;99.90
60909;DHT22;46780;48.128;-1.704;2023-01-10T02:59:02;8.60;99.90
60909;DHT22;46780;48.128;-1.704;2023-01-10T03:01:39;8.60;99.90
60909;DHT22;46780;48.128;-1.704;2023-01-10T03:04:18;8.60;99.90
60909;DHT22;46780;48.128;-1.704;2023-01-10T03:06:51;8.60;99.90
60909;DHT22;46780;48.128;-1.704;2023-01-10T03:09:23;8.60;99.90
60909;DHT22;46780;48.128;-1.704;2023-01-10T03:12:01;8.60;99.90
60909;DHT22;46780;48.128;-1.704;2023-01-10T03:14:31;8.60;99.90
60909;DHT22;46780;48.128;-1.704;2023-01-10T03:17:04;8.60;99.90
60909;DHT22;46780;48.128;-1.704;2023-01-10T03:19:38;8.60;99.90
60909;DHT22;46780;48.128;-1.704;2023-01-10T03:22:07;8.60;99.90
60909;DHT22;46780;48.128;-1.704;2023-01-10T03:24:37;8.60;99.90
60909;DHT22;46780;48.128;-1.704;2023-01-10T03:27:08;8.60;99.90
60909;DHT22;46780;48.128;-1.704;2023-01-10T03:29:43;8.60;99.90
60909;DHT22;46780;48.128;-1.704;2023-01-10T03:32:12;8.60;99.90
60909;DHT22;46780;48.128;-1.704;2023-01-10T03:34:42;8.70;99.90
60909;DHT22;46780;48.128;-1.704;2023-01-10T03:37:13;8.70;99.90
60909;DHT22;46780;48.128;-1.704;2023-01-10T03:39:48;8.70;99.90
60909;DHT22;46780;48.128;-1.704;2023-01-10T03:42:22;8.70;99.90
60909;DHT22;46780;48.128;-1.704;2023-01-10T03:44:57;8.70;99.90
60909;DHT22;46780;48.128;-1.704;2023-01-10T03:47:31;8.80;99.90
60909;DHT22;46780;48.128;-1.704;2023-01-10T03:50:03;8.80;99.90
60909;DHT22;46780;48.128;-1.704;2023-01-10T03:52:32;8.80;99.90
60909;DHT22;46780;48.128;-1.704;2023-01-10T03:54:59;8.80;99.90
60909;DHT22;46780;48.128;-1.704;2023-01-10T03:57:26;8.80;99.90
60909;DHT22;46780;48.128;-1.704;2023-01-10T03:59:54;8.80;99.90
60909;DHT22;46780;48.128;-1.704;2023-01-10T04:02:21;8.80;99.90
60909;DHT22;46780;48.128;-1.704;2023-01-10T04:04:47;8.80;99.90
60909;DHT22;46780;48.128;-1.704;2023-01-10T04:07:15;8.80;99.90
60909;DHT22;46780;48.128;-1.704;2023-01-10T04:09:42;8.80;99.90
60909;DHT22;46780;48.128;-1.704;2023-01-10T04:12:08;8.90;99.90
60909;DHT22;46780;48.128;-1.704;2023-01-10T04:14:34;8.90;99.90
60909;DHT22;46780;48.128;-1.704;2023-01-10T04:17:01;8.90;99.90
60909;DHT22;46780;48.128;-1.704;2023-01-10T04:19:27;8.90;99.90
60909;DHT22;46780;48.128;-1.704;2023-01-10T04:21:54;8.90;99.90
60909;DHT22;46780;48.128;-1.704;2023-01-10T04:24:22;8.90;99.90
60909;DHT22;46780;48.128;-1.704;2023-01-10T04:26:48;8.90;99.90
60909;DHT22;46780;48.128;-1.704;2023-01-10T04:29:15;8.90;99.90
60909;DHT22;46780;48.128;-1.704;2023-01-10T04:31:41;8.90;99.90
60909;DHT22;46780;48.128;-1.704;2023-01-10T04:34:08;8.90;99.90
60909;DHT22;46780;48.128;-1.704;2023-01-10T04:36:35;8.90;99.90
60909;DHT22;46780;48.128;-1.704;2023-01-10T04:39:01;8.90;99.90
60909;DHT22;46780;48.128;-1.704;2023-01-10T04:41:29;8.80;99.90
60909;DHT22;46780;48.128;-1.704;2023-01-10T04:43:56;8.80;99.90
60909;DHT22;46780;48.128;-1.704;2023-01-10T04:46:22;8.80;99.90
60909;DHT22;46780;48.128;-1.704;2023-01-10T04:48:49;8.80;99.90
60909;DHT22;46780;48.128;-1.704;2023-01-10T04:51:15;8.90;99.90
60909;DHT22;46780;48.128;-1.704;2023-01-10T04:53:42;8.90;99.90
60909;DHT22;46780;48.128;-1.704;2023-01-10T04:56:12;8.90;99.90
60909;DHT22;46780;48.128;-1.704;2023-01-10T04:58:41;8.90;99.90
60909;DHT22;46780;48.128;-1.704;2023-01-10T05:01:08;8.90;99.90
60909;DHT22;46780;48.128;-1.704;2023-01-10T05:03:35;8.90;99.90
60909;DHT22;46780;48.128;-1.704;2023-01-10T05:06:02;8.90;99.90
60909;DHT22;46780;48.128;-1.704;2023-01-10T05:08:28;8.90;99.90
60909;DHT22;46780;48.128;-1.704;2023-01-10T05:10:55;8.90;99.90
60909;DHT22;46780;48.128;-1.704;2023-01-10T05:13:21;8.90;99.90
60909;DHT22;46780;48.128;-1.704;2023-01-10T05:15:49;8.90;99.90
60909;DHT22;46780;48.128;-1.704;2023-01-10T05:18:18;8.90;99.90
60909;DHT22;46780;48.128;-1.704;2023-01-10T05:20:45;8.90;99.90
60909;DHT22;46780;48.128;-1.704;2023-01-10T05:23:11;8.90;99.90
60909;DHT22;46780;48.128;-1.704;2023-01-10T05:25:38;8.90;99.90
60909;DHT22;46780;48.128;-1.704;2023-01-10T05:28:04;8.90;99.90
60909;DHT22;46780;48.128;-1.704;2023-01-10T05:30:30;8.90;99.90
60909;DHT22;46780;48.128;-1.704;2023-01-10T05:32:58;8.90;99.90
60909;DHT22;46780;48.128;-1.704;2023-01-10T05:35:25;8.90;99.90
60909;DHT22;46780;48.128;-1.704;2023-01-10T05:37:51;8.90;99.90
60909;DHT22;46780;48.128;-1.704;2023-01-10T05:40:19;8.90;99.90
60909;DHT22;46780;48.128;-1.704;2023-01-10T05:42:45;8.90;99.90
60909;DHT22;46780;48.128;-1.704;2023-01-10T05:45:12;9.00;99.90
60909;DHT22;46780;48.128;-1.704;2023-01-10T05:47:39;9.00;99.90
60909;DHT22;46780;48.128;-1.704;2023-01-10T05:50:08;8.90;99.90
60909;DHT22;46780;48.128;-1.704;2023-01-10T05:52:34;9.00;99.90
60909;DHT22;46780;48.128;-1.704;2023-01-10T05:55:01;8.90;99.90
60909;DHT22;46780;48.128;-1.704;2023-01-10T05:57:27;8.90;99.90
60909;DHT22;46780;48.128;-1.704;2023-01-10T05:59:54;9.00;99.90
60909;DHT22;46780;48.128;-1.704;2023-01-10T06:02:21;8.90;99.90
60909;DHT22;46780;48.128;-1.704;2023-01-10T06:04:47;9.00;99.90
60909;DHT22;46780;48.128;-1.704;2023-01-10T06:07:15;9.00;99.90
60909;DHT22;46780;48.128;-1.704;2023-01-10T06:09:41;9.00;99.90
60909;DHT22;46780;48.128;-1.704;2023-01-10T06:12:08;9.00;99.90
60909;DHT22;46780;48.128;-1.704;2023-01-10T06:14:34;9.00;99.90
60909;DHT22;46780;48.128;-1.704;2023-01-10T06:17:01;8.90;99.90
60909;DHT22;46780;48.128;-1.704;2023-01-10T06:19:27;9.00;99.90
60909;DHT22;46780;48.128;-1.704;2023-01-10T06:21:54;9.00;99.90
60909;DHT22;46780;48.128;-1.704;2023-01-10T06:24:21;9.00;99.90
60909;DHT22;46780;48.128;-1.704;2023-01-10T06:26:48;9.00;99.90
60909;DHT22;46780;48.128;-1.704;2023-01-10T06:29:14;9.00;99.90
60909;DHT22;46780;48.128;-1.704;2023-01-10T06:31:41;9.00;99.90
60909;DHT22;46780;48.128;-1.704;2023-01-10T06:34:07;9.00;99.90
60909;DHT22;46780;48.128;-1.704;2023-01-10T06:36:34;9.10;99.90
60909;DHT22;46780;48.128;-1.704;2023-01-10T06:39:00;9.10;99.90
60909;DHT22;46780;48.128;-1.704;2023-01-10T06:41:28;9.10;99.90
60909;DHT22;46780;48.128;-1.704;2023-01-10T06:43:54;9.10;99.90
60909;DHT22;46780;48.128;-1.704;2023-01-10T06:46:21;9.10;99.90
60909;DHT22;46780;48.128;-1.704;2023-01-10T06:48:47;9.20;99.90
60909;DHT22;46780;48.128;-1.704;2023-01-10T06:51:15;9.20;99.90
60909;DHT22;46780;48.128;-1.704;2023-01-10T06:53:42;9.20;99.90
60909;DHT22;46780;48.128;-1.704;2023-01-10T06:56:09;9.20;99.90
60909;DHT22;46780;48.128;-1.704;2023-01-10T06:58:37;9.30;99.90
60909;DHT22;46780;48.128;-1.704;2023-01-10T07:01:05;9.20;99.90
60909;DHT22;46780;48.128;-1.704;2023-01-10T07:03:31;9.20;99.90
60909;DHT22;46780;48.128;-1.704;2023-01-10T07:06:00;9.30;99.90
60909;DHT22;46780;48.128;-1.704;2023-01-10T07:08:26;9.30;99.90
60909;DHT22;46780;48.128;-1.704;2023-01-10T07:10:56;9.30;99.90
60909;DHT22;46780;48.128;-1.704;2023-01-10T07:13:22;9.30;99.90
60909;DHT22;46780;48.128;-1.704;2023-01-10T07:15:50;9.30;99.90
60909;DHT22;46780;48.128;-1.704;2023-01-10T07:18:16;9.30;99.90
60909;DHT22;46780;48.128;-1.704;2023-01-10T07:20:43;9.40;99.90
60909;DHT22;46780;48.128;-1.704;2023-01-10T07:23:10;9.40;99.90
60909;DHT22;46780;48.128;-1.704;2023-01-10T07:25:36;9.40;99.90
60909;DHT22;46780;48.128;-1.704;2023-01-10T07:28:04;9.40;99.90
60909;DHT22;46780;48.128;-1.704;2023-01-10T07:30:30;9.40;99.90
60909;DHT22;46780;48.128;-1.704;2023-01-10T07:32:58;9.50;99.90
60909;DHT22;46780;48.128;-1.704;2023-01-10T07:35:25;9.50;99.90
60909;DHT22;46780;48.128;-1.704;2023-01-10T07:37:51;9.50;99.90
60909;DHT22;46780;48.128;-1.704;2023-01-10T07:40:18;9.50;99.90
60909;DHT22;46780;48.128;-1.704;2023-01-10T07:42:44;9.60;99.90
60909;DHT22;46780;48.128;-1.704;2023-01-10T07:45:11;9.60;99.90
60909;DHT22;46780;48.128;-1.704;2023-01-10T07:47:37;9.60;99.90
60909;DHT22;46780;48.128;-1.704;2023-01-10T07:50:06;9.70;99.90
60909;DHT22;46780;48.128;-1.704;2023-01-10T07:52:33;9.70;99.90
60909;DHT22;46780;48.128;-1.704;2023-01-10T07:54:59;9.70;99.90
60909;DHT22;46780;48.128;-1.704;2023-01-10T07:57:26;9.80;99.90
60909;DHT22;46780;48.128;-1.704;2023-01-10T07:59:52;9.80;99.90
60909;DHT22;46780;48.128;-1.704;2023-01-10T08:02:19;9.80;99.90
60909;DHT22;46780;48.128;-1.704;2023-01-10T08:04:45;9.80;99.90
60909;DHT22;46780;48.128;-1.704;2023-01-10T08:07:13;9.80;99.90
60909;DHT22;46780;48.128;-1.704;2023-01-10T08:09:39;9.80;99.90
60909;DHT22;46780;48.128;-1.704;2023-01-10T08:12:06;9.80;99.90
60909;DHT22;46780;48.128;-1.704;2023-01-10T08:14:32;9.90;99.90
60909;DHT22;46780;48.128;-1.704;2023-01-10T08:17:02;9.90;99.90
60909;DHT22;46780;48.128;-1.704;2023-01-10T08:19:30;9.90;99.90
60909;DHT22;46780;48.128;-1.704;2023-01-10T08:21:56;9.90;99.90
60909;DHT22;46780;48.128;-1.704;2023-01-10T08:24:24;9.90;99.90
60909;DHT22;46780;48.128;-1.704;2023-01-10T08:26:50;10.00;99.90
60909;DHT22;46780;48.128;-1.704;2023-01-10T08:29:17;10.00;99.90
60909;DHT22;46780;48.128;-1.704;2023-01-10T08:31:43;10.00;99.90
60909;DHT22;46780;48.128;-1.704;2023-01-10T08:34:12;10.10;99.90
60909;DHT22;46780;48.128;-1.704;2023-01-10T08:36:38;10.10;99.90
60909;DHT22;46780;48.128;-1.704;2023-01-10T08:39:05;10.20;99.90
60909;DHT22;46780;48.128;-1.704;2023-01-10T08:41:33;10.20;99.90
60909;DHT22;46780;48.128;-1.704;2023-01-10T08:43:59;10.20;99.90
60909;DHT22;46780;48.128;-1.704;2023-01-10T08:46:26;10.30;99.90
60909;DHT22;46780;48.128;-1.704;2023-01-10T08:48:52;10.30;99.90
60909;DHT22;46780;48.128;-1.704;2023-01-10T08:51:19;10.40;99.90
60909;DHT22;46780;48.128;-1.704;2023-01-10T08:53:45;10.40;99.90
60909;DHT22;46780;48.128;-1.704;2023-01-10T08:56:12;10.40;99.90
60909;DHT22;46780;48.128;-1.704;2023-01-10T08:58:39;10.50;99.90
60909;DHT22;46780;48.128;-1.704;2023-01-10T09:01:07;10.60;99.90
60909;DHT22;46780;48.128;-1.704;2023-01-10T09:03:33;10.60;99.90
60909;DHT22;46780;48.128;-1.704;2023-01-10T09:06:00;10.70;99.90
60909;DHT22;46780;48.128;-1.704;2023-01-10T09:08:27;10.80;99.90
60909;DHT22;46780;48.128;-1.704;2023-01-10T09:10:56;10.80;99.90
60909;DHT22;46780;48.128;-1.704;2023-01-10T09:13:23;10.90;99.90
60909;DHT22;46780;48.128;-1.704;2023-01-10T09:15:51;10.90;99.90
60909;DHT22;46780;48.128;-1.704;2023-01-10T09:18:18;10.90;99.90
60909;DHT22;46780;48.128;-1.704;2023-01-10T09:20:44;10.90;99.90
60909;DHT22;46780;48.128;-1.704;2023-01-10T09:23:13;11.00;99.90
60909;DHT22;46780;48.128;-1.704;2023-01-10T09:25:40;11.00;99.90
60909;DHT22;46780;48.128;-1.704;2023-01-10T09:28:06;11.10;99.90
60909;DHT22;46780;48.128;-1.704;2023-01-10T09:30:33;11.10;99.90
60909;DHT22;46780;48.128;-1.704;2023-01-10T09:33:02;11.10;99.90
60909;DHT22;46780;48.128;-1.704;2023-01-10T09:35:30;11.20;99.90
60909;DHT22;46780;48.128;-1.704;2023-01-10T09:37:59;11.20;99.90
60909;DHT22;46780;48.128;-1.704;2023-01-10T09:40:37;11.20;99.90
60909;DHT22;46780;48.128;-1.704;2023-01-10T09:43:11;11.30;99.90
60909;DHT22;46780;48.128;-1.704;2023-01-10T09:45:49;11.30;99.90
60909;DHT22;46780;48.128;-1.704;2023-01-10T09:48:24;11.30;99.90
60909;DHT22;46780;48.128;-1.704;2023-01-10T09:51:03;11.40;99.90
60909;DHT22;46780;48.128;-1.704;2023-01-10T09:53:33;11.40;99.90
60909;DHT22;46780;48.128;-1.704;2023-01-10T09:56:01;11.50;99.90
60909;DHT22;46780;48.128;-1.704;2023-01-10T09:58:30;11.50;99.90
60909;DHT22;46780;48.128;-1.704;2023-01-10T10:01:02;11.50;99.90
60909;DHT22;46780;48.128;-1.704;2023-01-10T10:03:36;11.60;99.90
60909;DHT22;46780;48.128;-1.704;2023-01-10T10:06:09;11.60;99.90
60909;DHT22;46780;48.128;-1.704;2023-01-10T10:08:36;11.70;99.90
60909;DHT22;46780;48.128;-1.704;2023-01-10T10:11:16;11.80;99.90
60909;DHT22;46780;48.128;-1.704;2023-01-10T10:13:53;11.80;99.90
60909;DHT22;46780;48.128;-1.704;2023-01-10T10:16:30;11.90;99.90
60909;DHT22;46780;48.128;-1.704;2023-01-10T10:19:11;11.90;99.90
60909;DHT22;46780;48.128;-1.704;2023-01-10T10:21:47;11.90;99.90
60909;DHT22;46780;48.128;-1.704;2023-01-10T10:24:32;12.00;99.90
60909;DHT22;46780;48.128;-1.704;2023-01-10T10:27:08;12.00;99.90
60909;DHT22;46780;48.128;-1.704;2023-01-10T10:30:11;12.10;99.90
60909;DHT22;46780;48.128;-1.704;2023-01-10T10:32:54;12.20;99.90
60909;DHT22;46780;48.128;-1.704;2023-01-10T10:35:26;12.20;99.90
60909;DHT22;46780;48.128;-1.704;2023-01-10T10:37:57;12.40;99.90
60909;DHT22;46780;48.128;-1.704;2023-01-10T10:40:31;12.40;99.90
60909;DHT22;46780;48.128;-1.704;2023-01-10T10:42:58;12.50;99.90
60909;DHT22;46780;48.128;-1.704;2023-01-10T10:45:30;12.50;99.90
60909;DHT22;46780;48.128;-1.704;2023-01-10T10:48:06;12.60;99.90
60909;DHT22;46780;48.128;-1.704;2023-01-10T10:50:47;12.70;99.90
60909;DHT22;46780;48.128;-1.704;2023-01-10T10:53:15;12.80;99.90
60909;DHT22;46780;48.128;-1.704;2023-01-10T10:55:42;12.80;99.90
60909;DHT22;46780;48.128;-1.704;2023-01-10T10:58:09;12.80;99.90
60909;DHT22;46780;48.128;-1.704;2023-01-10T11:00:39;12.90;99.90
60909;DHT22;46780;48.128;-1.704;2023-01-10T11:03:15;12.90;99.90
60909;DHT22;46780;48.128;-1.704;2023-01-10T11:05:46;13.00;99.90
60909;DHT22;46780;48.128;-1.704;2023-01-10T11:08:15;13.00;99.90
60909;DHT22;46780;48.128;-1.704;2023-01-10T11:10:47;13.00;99.90
60909;DHT22;46780;48.128;-1.704;2023-01-10T11:13:19;13.10;99.90
60909;DHT22;46780;48.128;-1.704;2023-01-10T11:15:48;13.10;99.90
60909;DHT22;46780;48.128;-1.704;2023-01-10T11:18:17;13.10;99.90
60909;DHT22;46780;48.128;-1.704;2023-01-10T11:20:53;13.10;99.90
60909;DHT22;46780;48.128;-1.704;2023-01-10T11:23:22;13.20;99.90
60909;DHT22;46780;48.128;-1.704;2023-01-10T11:25:50;13.30;99.90
60909;DHT22;46780;48.128;-1.704;2023-01-10T11:28:19;13.40;99.90
60909;DHT22;46780;48.128;-1.704;2023-01-10T11:30:46;13.40;99.90
60909;DHT22;46780;48.128;-1.704;2023-01-10T11:33:18;13.40;99.90
60909;DHT22;46780;48.128;-1.704;2023-01-10T11:35:59;13.50;99.90
60909;DHT22;46780;48.128;-1.704;2023-01-10T11:38:26;13.50;99.90
60909;DHT22;46780;48.128;-1.704;2023-01-10T11:40:55;13.50;99.90
60909;DHT22;46780;48.128;-1.704;2023-01-10T11:43:25;13.60;99.90
60909;DHT22;46780;48.128;-1.704;2023-01-10T11:45:54;13.60;99.90
60909;DHT22;46780;48.128;-1.704;2023-01-10T11:48:22;13.60;99.90
60909;DHT22;46780;48.128;-1.704;2023-01-10T11:50:51;13.60;99.90
60909;DHT22;46780;48.128;-1.704;2023-01-10T11:53:35;13.60;99.90
60909;DHT22;46780;48.128;-1.704;2023-01-10T11:56:04;13.60;99.90
60909;DHT22;46780;48.128;-1.704;2023-01-10T11:58:33;13.60;99.90
60909;DHT22;46780;48.128;-1.704;2023-01-10T12:01:00;13.60;99.90
60909;DHT22;46780;48.128;-1.704;2023-01-10T12:03:30;13.70;99.90
60909;DHT22;46780;48.128;-1.704;2023-01-10T12:05:59;13.70;99.90
60909;DHT22;46780;48.128;-1.704;2023-01-10T12:08:29;13.70;99.90
60909;DHT22;46780;48.128;-1.704;2023-01-10T12:11:02;13.70;99.90
60909;DHT22;46780;48.128;-1.704;2023-01-10T12:13:30;13.70;99.90
60909;DHT22;46780;48.128;-1.704;2023-01-10T12:16:18;13.80;99.90
60909;DHT22;46780;48.128;-1.704;2023-01-10T12:18:45;13.80;99.90
60909;DHT22;46780;48.128;-1.704;2023-01-10T12:21:15;13.90;99.90
60909;DHT22;46780;48.128;-1.704;2023-01-10T12:23:44;14.00;99.90
60909;DHT22;46780;48.128;-1.704;2023-01-10T12:26:13;14.10;99.90
60909;DHT22;46780;48.128;-1.704;2023-01-10T12:28:44;14.20;99.90
60909;DHT22;46780;48.128;-1.704;2023-01-10T12:31:13;14.20;99.90
60909;DHT22;46780;48.128;-1.704;2023-01-10T12:33:43;14.20;99.90
60909;DHT22;46780;48.128;-1.704;2023-01-10T12:36:21;14.20;99.90
60909;DHT22;46780;48.128;-1.704;2023-01-10T12:38:56;14.20;99.90
60909;DHT22;46780;48.128;-1.704;2023-01-10T12:41:34;14.20;99.90
60909;DHT22;46780;48.128;-1.704;2023-01-10T12:44:12;14.20;99.90
60909;DHT22;46780;48.128;-1.704;2023-01-10T12:46:44;14.30;99.90
60909;DHT22;46780;48.128;-1.704;2023-01-10T12:49:16;14.30;99.90
60909;DHT22;46780;48.128;-1.704;2023-01-10T12:51:45;14.30;99.90
60909;DHT22;46780;48.128;-1.704;2023-01-10T12:54:17;14.30;99.90
60909;DHT22;46780;48.128;-1.704;2023-01-10T12:56:46;14.30;99.90
60909;DHT22;46780;48.128;-1.704;2023-01-10T12:59:18;14.20;99.90
60909;DHT22;46780;48.128;-1.704;2023-01-10T13:01:49;14.20;99.90
60909;DHT22;46780;48.128;-1.704;2023-01-10T13:04:20;14.20;99.90
60909;DHT22;46780;48.128;-1.704;2023-01-10T13:06:47;14.20;99.90
60909;DHT22;46780;48.128;-1.704;2023-01-10T13:09:17;14.10;99.90
60909;DHT22;46780;48.128;-1.704;2023-01-10T13:11:49;14.20;99.90
60909;DHT22;46780;48.128;-1.704;2023-01-10T13:14:22;14.10;99.90
60909;DHT22;46780;48.128;-1.704;2023-01-10T13:16:55;14.10;99.90
60909;DHT22;46780;48.128;-1.704;2023-01-10T13:19:24;14.10;99.90
60909;DHT22;46780;48.128;-1.704;2023-01-10T13:22:15;14.10;99.90
60909;DHT22;46780;48.128;-1.704;2023-01-10T13:24:54;14.10;99.90
60909;DHT22;46780;48.128;-1.704;2023-01-10T13:27:30;14.10;99.90
60909;DHT22;46780;48.128;-1.704;2023-01-10T13:29:57;14.10;99.90
60909;DHT22;46780;48.128;-1.704;2023-01-10T13:32:26;14.10;99.90
60909;DHT22;46780;48.128;-1.704;2023-01-10T13:34:54;14.10;99.90
60909;DHT22;46780;48.128;-1.704;2023-01-10T13:37:33;14.10;99.90
60909;DHT22;46780;48.128;-1.704;2023-01-10T13:40:02;14.20;99.90
60909;DHT22;46780;48.128;-1.704;2023-01-10T13:42:31;14.10;99.90
60909;DHT22;46780;48.128;-1.704;2023-01-10T13:45:24;14.10;99.90
60909;DHT22;46780;48.128;-1.704;2023-01-10T13:48:02;14.20;99.90
60909;DHT22;46780;48.128;-1.704;2023-01-10T13:50:57;14.20;99.90
60909;DHT22;46780;48.128;-1.704;2023-01-10T13:53:58;14.20;99.90
60909;DHT22;46780;48.128;-1.704;2023-01-10T13:56:33;14.20;99.90
60909;DHT22;46780;48.128;-1.704;2023-01-10T13:59:02;14.20;99.90
60909;DHT22;46780;48.128;-1.704;2023-01-10T14:01:34;14.20;99.90
60909;DHT22;46780;48.128;-1.704;2023-01-10T14:04:01;14.20;99.90
60909;DHT22;46780;48.128;-1.704;2023-01-10T14:06:33;14.20;99.90
60909;DHT22;46780;48.128;-1.704;2023-01-10T14:09:03;14.20;99.90
60909;DHT22;46780;48.128;-1.704;2023-01-10T14:11:47;14.20;99.90
60909;DHT22;46780;48.128;-1.704;2023-01-10T14:14:19;14.30;99.90
60909;DHT22;46780;48.128;-1.704;2023-01-10T14:16:48;14.30;99.90
60909;DHT22;46780;48.128;-1.704;2023-01-10T14:19:23;14.30;99.90
60909;DHT22;46780;48.128;-1.704;2023-01-10T14:21:52;14.30;99.90
60909;DHT22;46780;48.128;-1.704;2023-01-10T14:24:23;14.30;99.90
60909;DHT22;46780;48.128;-1.704;2023-01-10T14:26:52;14.30;99.90
60909;DHT22;46780;48.128;-1.704;2023-01-10T14:29:21;14.30;99.90
60909;DHT22;46780;48.128;-1.704;2023-01-10T14:31:49;14.30;99.90
60909;DHT22;46780;48.128;-1.704;2023-01-10T14:34:21;14.30;99.90
60909;DHT22;46780;48.128;-1.704;2023-01-10T14:36:52;14.30;99.90
60909;DHT22;46780;48.128;-1.704;2023-01-10T14:39:21;14.30;99.90
60909;DHT22;46780;48.128;-1.704;2023-01-10T14:41:50;14.30;99.90
60909;DHT22;46780;48.128;-1.704;2023-01-10T14:44:21;14.20;99.90
60909;DHT22;46780;48.128;-1.704;2023-01-10T14:46:50;14.20;99.90
60909;DHT22;46780;48.128;-1.704;2023-01-10T14:49:25;14.20;99.90
60909;DHT22;46780;48.128;-1.704;2023-01-10T14:51:53;14.20;99.90
60909;DHT22;46780;48.128;-1.704;2023-01-10T14:54:20;14.20;99.90
60909;DHT22;46780;48.128;-1.704;2023-01-10T14:56:48;14.20;99.90
60909;DHT22;46780;48.128;-1.704;2023-01-10T14:59:23;14.20;99.90
60909;DHT22;46780;48.128;-1.704;2023-01-10T15:01:51;14.20;99.90
60909;DHT22;46780;48.128;-1.704;2023-01-10T15:04:20;14.20;99.90
60909;DHT22;46780;48.128;-1.704;2023-01-10T15:06:54;14.20;99.90
60909;DHT22;46780;48.128;-1.704;2023-01-10T15:09:21;14.20;99.90
60909;DHT22;46780;48.128;-1.704;2023-01-10T15:11:48;14.20;99.90
60909;DHT22;46780;48.128;-1.704;2023-01-10T15:14:16;14.20;99.90
60909;DHT22;46780;48.128;-1.704;2023-01-10T15:16:46;14.20;99.90
60909;DHT22;46780;48.128;-1.704;2023-01-10T15:19:17;14.10;99.90
60909;DHT22;46780;48.128;-1.704;2023-01-10T15:21:45;14.10;99.90
60909;DHT22;46780;48.128;-1.704;2023-01-10T15:24:38;14.00;99.90
60909;DHT22;46780;48.128;-1.704;2023-01-10T15:27:10;14.00;99.90
60909;DHT22;46780;48.128;-1.704;2023-01-10T15:29:38;14.00;99.90
60909;DHT22;46780;48.128;-1.704;2023-01-10T15:32:10;14.10;99.90
60909;DHT22;46780;48.128;-1.704;2023-01-10T15:34:38;14.10;99.90
60909;DHT22;46780;48.128;-1.704;2023-01-10T15:37:05;14.10;99.90
60909;DHT22;46780;48.128;-1.704;2023-01-10T15:39:34;14.00;99.90
60909;DHT22;46780;48.128;-1.704;2023-01-10T15:42:04;14.10;99.90
60909;DHT22;46780;48.128;-1.704;2023-01-10T15:44:36;14.10;99.90
60909;DHT22;46780;48.128;-1.704;2023-01-10T15:47:04;14.10;99.90